Iola, TX (77861)

10:53 PM CDT on August 02, 2015 (GMT -0500)
K5ZY iola | | Change Station
CLOSE
Current Station
Personal Weather Station
Location: Iola, TX
Elevation: 295 ft
Nearby Weather Stations

Elev 295 ft 30.69 °N, 96.10 °W | Updated 4 minutes ago

Clear
Clear
78.8 °F
Feels Like 78 °F
N
0.0
Wind Variable Wind from NE
Gusts 0.0 mph

Today
High -- | Low -- °F
--% Chance of Precip.
Yesterday
High -- | Low -- °F
Precip. -- in
6:42 AM 8:18 PM
Waning Gibbous, 90% visible
Pressure 29.88 in
Visibility 10.0 miles
Clouds Clear
Heat Index 78 °F
Dew Point 34 °F
Humidity 20%
Rainfall 0.00 in
Snow Depth Not available.
UV 0 out of 12
Pollen 2.90 out of 12
Air Quality Not available.
Flu Activity Not available.
METAR KCFD 030335Z AUTO 06006KT 10SM CLR 26/16 A2988 RMK AO2 T02560158

More Conditions Fewer Conditions

Pressure 29.88 in
Visibility 10.0 miles
Clouds Clear
Heat Index 78 °F
Dew Point 34 °F
Humidity 20%
Rainfall 0.00 in
Snow Depth Not available.
UV 0 out of 12
Pollen 2.90 out of 12
Air Quality Not available.
Flu Activity Not available.
METAR KCFD 030335Z AUTO 06006KT 10SM CLR 26/16 A2988 RMK AO2 T02560158

More Conditions Fewer Conditions

10-Day Weather Forecast

×

Almanac

Astronomy

Aug. 02, 2015 Rise Set
Actual Time
Civil Twilight
Nautical Twilight
Astronomical Twilight
Moon
Length of Visible Light
Length of Day
Tomorrow will be .
, % of the Moon is Illuminated

Today's Extremes

State Highs State Lows

Community

WunderPhotos

Upload Photos

1,843,565 photos uploaded!

WunderBlogs® & News

Nearby

Air Quality

  Air Quality AQ Index Pollutant
Not available.

Snow Depth

Station Depth Elevation

Earthquake Activity

City Distance Mag. Time & Date
Minimum magnitude displayed is 2.5.

Coastal Water Temperatures

Place Temperature

Stations

Nearby Weather Stations

Station Location Temp. Windchill Dew Point Humidity Wind Precip. Elev Updated Type